Time;durP1;ratioP1;P1;durP2;ratioP2;P2;SDS_P1;SDS_P2;PMS_P1;PMS_P2;Temp;Humidity;BMP_temperature;BMP_pressure;BME280_temperature;BME280_humidity;BME280_pressure;Samples;Min_cycle;Max_cycle;Signal;HPM_P1;HPM_P2
2023/01/01 00:00:40;;;;;;;10.40;6.97;;;15.50;99.90;;;;;;5071317;28;20875;-86
2023/01/01 00:03:06;;;;;;;11.70;6.70;;;15.20;99.90;;;;;;5090916;28;20376;-88
2023/01/01 00:05:31;;;;;;;13.82;7.13;;;15.40;99.90;;;;;;5090328;28;20866;-88
2023/01/01 00:07:57;;;;;;;8.43;6.13;;;15.40;99.90;;;;;;5090410;28;20381;-89
2023/01/01 00:10:29;;;;;;;14.15;6.25;;;15.30;99.90;;;;;;5091830;28;20380;-86
2023/01/01 00:12:56;;;;;;;8.13;4.90;;;15.30;99.90;;;;;;5071655;28;20380;-87
2023/01/01 00:15:23;;;;;;;7.03;4.63;;;15.50;99.90;;;;;;5090763;28;20385;-86
2023/01/01 00:17:48;;;;;;;8.25;4.28;;;15.40;99.90;;;;;;5071926;28;20479;-86
2023/01/01 00:20:14;;;;;;;7.55;4.45;;;15.40;99.90;;;;;;5090755;28;20441;-88
2023/01/01 00:22:40;;;;;;;7.93;3.40;;;15.40;99.90;;;;;;5071752;28;20381;-86
2023/01/01 00:25:06;;;;;;;7.43;3.88;;;15.40;99.90;;;;;;5071888;28;20407;-87
2023/01/01 00:27:32;;;;;;;8.80;3.90;;;15.40;99.90;;;;;;5089800;28;20472;-87
2023/01/01 00:29:58;;;;;;;6.97;3.50;;;15.40;99.90;;;;;;5071488;28;20401;-85
2023/01/01 00:32:23;;;;;;;7.27;3.53;;;15.30;99.90;;;;;;5072092;28;20376;-89
2023/01/01 00:34:49;;;;;;;10.05;3.97;;;15.30;99.90;;;;;;5071178;28;20377;-85
2023/01/01 00:37:17;;;;;;;7.60;3.45;;;15.30;99.90;;;;;;5089950;28;20400;-87
2023/01/01 00:39:43;;;;;;;7.85;3.65;;;15.30;99.90;;;;;;5089891;28;20380;-87
2023/01/01 00:42:09;;;;;;;7.97;3.47;;;15.30;99.90;;;;;;5071284;28;20412;-86
2023/01/01 00:44:35;;;;;;;8.45;3.53;;;15.30;99.90;;;;;;5071504;28;20400;-89
2023/01/01 00:47:01;;;;;;;12.97;3.60;;;15.30;99.90;;;;;;5071479;28;20410;-87
2023/01/01 00:49:26;;;;;;;8.80;3.58;;;15.30;99.90;;;;;;5089950;28;20510;-86
2023/01/01 00:51:52;;;;;;;7.30;2.88;;;15.30;99.90;;;;;;5070047;28;20728;-87
2023/01/01 00:54:18;;;;;;;8.27;3.13;;;15.30;99.90;;;;;;5071404;28;20782;-87
2023/01/01 00:56:44;;;;;;;6.20;3.27;;;15.20;99.90;;;;;;5070432;28;20377;-87
2023/01/01 00:59:10;;;;;;;6.97;3.40;;;15.10;99.90;;;;;;5071828;28;20414;-88
2023/01/01 01:01:36;;;;;;;7.97;2.92;;;15.20;99.90;;;;;;5070169;28;20476;-88
2023/01/01 01:04:03;;;;;;;6.40;2.92;;;15.10;99.90;;;;;;5071245;28;20419;-88
2023/01/01 01:06:28;;;;;;;8.43;3.17;;;15.10;99.90;;;;;;5070415;28;20841;-89
2023/01/01 01:08:54;;;;;;;9.60;3.40;;;15.10;99.90;;;;;;5077129;28;20399;-88
2023/01/01 01:11:23;;;;;;;7.30;3.42;;;15.10;99.90;;;;;;5089124;28;21185;-87
2023/01/01 01:13:52;;;;;;;7.78;3.78;;;15.10;99.90;;;;;;5088501;28;20463;-88
2023/01/01 01:16:25;;;;;;;10.03;5.93;;;15.10;99.90;;;;;;5089027;28;20384;-88
2023/01/01 01:18:52;;;;;;;7.93;4.07;;;15.20;99.90;;;;;;5070725;28;20384;-89
2023/01/01 01:21:20;;;;;;;8.80;4.57;;;15.20;99.90;;;;;;5070575;28;20376;-87
2023/01/01 01:23:46;;;;;;;12.02;6.57;;;15.20;99.90;;;;;;5088435;28;20818;-87
2023/01/01 01:26:15;;;;;;;10.07;4.72;;;15.30;99.90;;;;;;5085180;27;20454;-86
2023/01/01 01:28:42;;;;;;;9.60;4.03;;;15.10;99.90;;;;;;5129512;27;20373;-85
2023/01/01 01:31:19;;;;;;;7.37;4.30;;;15.10;99.90;;;;;;5105115;28;20434;-89
2023/01/01 01:33:46;;;;;;;8.87;4.03;;;15.10;99.90;;;;;;5094647;28;20443;-85
2023/01/01 01:36:14;;;;;;;6.93;3.80;;;15.10;99.90;;;;;;5111278;28;20512;-86
2023/01/01 01:38:40;;;;;;;6.77;3.97;;;15.10;99.90;;;;;;5130493;27;20426;-86
2023/01/01 01:41:07;;;;;;;8.18;3.60;;;15.10;99.90;;;;;;5130375;27;20385;-84
2023/01/01 01:43:33;;;;;;;8.02;4.07;;;15.20;99.90;;;;;;5110585;28;20365;-85
2023/01/01 01:46:32;;;;;;;12.48;4.70;;;14.70;99.90;;;;;;5110733;28;20430;-85
2023/01/01 01:49:09;;;;;;;7.87;4.33;;;15.00;99.90;;;;;;5127868;28;20441;-85
2023/01/01 01:51:38;;;;;;;12.23;5.32;;;14.90;99.90;;;;;;5107905;28;20456;-85
2023/01/01 01:54:15;;;;;;;10.35;5.40;;;15.00;99.90;;;;;;5108709;28;20775;-85
2023/01/01 01:56:53;;;;;;;11.27;7.00;;;15.00;99.90;;;;;;5090539;28;20891;-85
2023/01/01 01:59:23;;;;;;;14.95;8.07;;;14.90;99.90;;;;;;5090839;28;20377;-86
2023/01/01 02:01:52;;;;;;;13.57;5.90;;;14.90;99.90;;;;;;5109914;28;20390;-85
2023/01/01 02:04:18;;;;;;;9.60;5.18;;;14.90;99.90;;;;;;5091256;28;20391;-85
2023/01/01 02:06:47;;;;;;;7.10;4.55;;;15.00;99.90;;;;;;5096024;27;20401;-87
2023/01/01 02:09:13;;;;;;;11.63;4.75;;;15.10;99.90;;;;;;5133197;27;20385;-86
2023/01/01 02:11:39;;;;;;;7.85;4.75;;;15.10;99.90;;;;;;5097840;27;20730;-84
2023/01/01 02:14:05;;;;;;;9.65;4.68;;;15.10;99.90;;;;;;5132721;27;20380;-85
2023/01/01 02:16:37;;;;;;;9.05;4.80;;;15.10;99.90;;;;;;5132176;27;21018;-85
2023/01/01 02:19:56;;;;;;;12.98;4.80;;;15.20;99.90;;;;;;5132128;27;20369;-85
2023/01/01 02:22:58;;;;;;;8.30;4.75;;;15.20;99.90;;;;;;5086971;27;20477;-85
2023/01/01 02:25:45;;;;;;;9.18;4.75;;;15.30;99.90;;;;;;5116928;27;20407;-85
2023/01/01 02:28:49;;;;;;;9.75;4.88;;;15.30;99.90;;;;;;5132187;27;20858;-85
2023/01/01 02:31:22;;;;;;;10.10;5.20;;;15.20;99.90;;;;;;5090028;27;20385;-85
2023/01/01 02:33:49;;;;;;;11.35;4.85;;;15.10;99.90;;;;;;5132440;27;20400;-85
2023/01/01 02:36:18;;;;;;;8.18;4.72;;;15.20;99.90;;;;;;5129527;27;20369;-86
2023/01/01 02:38:47;;;;;;;14.38;5.25;;;15.10;99.90;;;;;;5099010;28;20372;-84
2023/01/01 02:41:12;;;;;;;7.97;5.00;;;15.20;99.90;;;;;;5090786;28;20403;-85
2023/01/01 02:43:40;;;;;;;12.23;4.97;;;15.20;99.90;;;;;;5089596;28;20422;-85
2023/01/01 02:46:08;;;;;;;11.07;5.28;;;15.00;99.90;;;;;;5089971;28;20412;-84
2023/01/01 02:48:39;;;;;;;9.10;4.60;;;15.00;99.90;;;;;;5072513;28;20858;-87
2023/01/01 02:51:32;;;;;;;11.75;4.90;;;14.90;99.90;;;;;;5090172;28;20375;-84
2023/01/01 02:54:16;;;;;;;8.35;4.45;;;14.90;99.90;;;;;;5090142;28;20463;-85
2023/01/01 02:56:56;;;;;;;9.05;4.65;;;14.90;99.90;;;;;;5090462;28;20380;-85
2023/01/01 03:02:30;;;;;;;9.73;4.43;;;15.00;99.90;;;;;;5090423;28;20758;-85
2023/01/01 03:07:47;;;;;;;10.63;4.50;;;15.00;99.90;;;;;;5056438;22;20750;-87
2023/01/01 03:10:23;;;;;;;9.13;4.10;;;15.00;99.90;;;;;;5032614;28;20392;-83
2023/01/01 03:13:09;;;;;;;9.15;4.45;;;14.90;99.90;;;;;;5051195;28;20402;-84
2023/01/01 03:15:38;;;;;;;8.55;4.18;;;14.80;99.90;;;;;;5033209;28;20396;-82
2023/01/01 03:18:22;;;;;;;9.52;3.92;;;14.80;99.90;;;;;;5050942;28;20382;-85
2023/01/01 03:20:50;;;;;;;8.93;3.85;;;14.70;99.90;;;;;;5050285;28;20458;-83
2023/01/01 03:23:30;;;;;;;9.53;4.17;;;14.70;99.90;;;;;;5050393;28;20376;-82
2023/01/01 03:26:00;;;;;;;8.32;4.10;;;14.70;99.90;;;;;;5049397;28;21171;-83
2023/01/01 03:28:41;;;;;;;10.57;4.55;;;14.70;99.90;;;;;;5050846;28;20372;-83
2023/01/01 03:31:07;;;;;;;9.27;4.28;;;14.90;99.90;;;;;;5050135;28;20384;-84
2023/01/01 03:33:41;;;;;;;9.82;4.00;;;14.80;99.90;;;;;;5050047;28;20391;-84
2023/01/01 03:36:10;;;;;;;11.68;4.30;;;14.90;99.90;;;;;;5032588;28;20798;-84
2023/01/01 03:38:39;;;;;;;8.38;4.10;;;14.90;99.90;;;;;;5050799;28;20768;-83
2023/01/01 03:41:25;;;;;;;6.90;3.95;;;14.90;99.90;;;;;;5049661;28;20391;-84
2023/01/01 03:43:54;;;;;;;11.10;4.50;;;14.70;99.90;;;;;;5032794;28;20433;-85
2023/01/01 03:46:25;;;;;;;8.68;3.83;;;14.70;99.90;;;;;;5050151;28;20405;-84
2023/01/01 03:48:57;;;;;;;9.27;3.90;;;14.70;99.90;;;;;;5032101;28;20380;-82
2023/01/01 03:51:29;;;;;;;9.63;4.20;;;14.60;99.90;;;;;;5049255;28;20376;-84
2023/01/01 03:53:59;;;;;;;11.35;4.53;;;14.50;99.90;;;;;;5050133;28;20383;-84
2023/01/01 03:56:44;;;;;;;9.85;4.47;;;14.50;99.90;;;;;;5050807;28;20376;-85
2023/01/01 03:59:34;;;;;;;10.82;4.97;;;14.50;99.90;;;;;;5050074;28;20380;-85
2023/01/01 04:02:03;;;;;;;10.23;4.53;;;14.50;99.90;;;;;;5049017;28;20383;-85
2023/01/01 04:04:29;;;;;;;12.73;5.00;;;14.60;99.90;;;;;;5049882;28;20399;-84
2023/01/01 04:06:56;;;;;;;10.48;4.45;;;14.50;99.90;;;;;;5049625;28;20411;-85
2023/01/01 04:09:28;;;;;;;8.82;4.40;;;14.60;99.90;;;;;;5050095;28;20426;-83
2023/01/01 04:12:06;;;;;;;12.20;4.70;;;14.70;99.90;;;;;;5031571;28;20410;-84
2023/01/01 04:14:38;;;;;;;10.65;4.43;;;14.80;99.90;;;;;;5050053;28;20387;-85
2023/01/01 04:17:05;;;;;;;8.50;3.97;;;14.90;99.90;;;;;;5049373;28;20398;-84
2023/01/01 04:19:31;;;;;;;10.23;4.03;;;14.90;99.90;;;;;;5049913;28;20424;-84
2023/01/01 04:21:57;;;;;;;10.93;4.40;;;14.90;99.90;;;;;;5049704;28;20376;-85
2023/01/01 04:24:23;;;;;;;8.53;4.20;;;15.00;99.90;;;;;;5049567;28;20380;-84
2023/01/01 04:26:52;;;;;;;11.40;4.00;;;15.00;99.90;;;;;;5049335;28;20468;-84
2023/01/01 04:29:19;;;;;;;7.97;4.15;;;15.00;99.90;;;;;;5048319;28;20459;-85
2023/01/01 04:31:45;;;;;;;11.70;4.40;;;14.90;99.90;;;;;;5048036;28;20735;-85
2023/01/01 04:34:11;;;;;;;8.65;4.03;;;14.90;99.90;;;;;;5049738;28;20386;-84
2023/01/01 04:36:40;;;;;;;11.57;4.18;;;14.90;99.90;;;;;;5049145;28;20384;-84
2023/01/01 04:39:07;;;;;;;11.32;4.35;;;14.80;99.90;;;;;;5048801;28;20707;-84
2023/01/01 04:41:33;;;;;;;13.90;4.47;;;14.80;99.90;;;;;;5030763;28;20394;-84
2023/01/01 04:43:59;;;;;;;8.63;3.92;;;14.80;99.90;;;;;;5031301;28;20380;-85
2023/01/01 04:46:24;;;;;;;9.73;3.97;;;14.70;99.90;;;;;;5049222;28;20410;-85
2023/01/01 04:48:50;;;;;;;8.87;4.17;;;14.60;99.90;;;;;;5049315;28;20722;-84
2023/01/01 04:51:18;;;;;;;9.88;4.20;;;14.60;99.90;;;;;;5029790;28;20529;-84
2023/01/01 04:53:43;;;;;;;7.55;3.90;;;14.60;99.90;;;;;;5031309;28;20372;-85
2023/01/01 04:56:11;;;;;;;10.55;4.63;;;15.20;99.90;;;;;;5031526;28;20858;-85
2023/01/01 04:58:39;;;;;;;10.52;5.07;;;14.50;99.90;;;;;;5049101;28;20375;-85
2023/01/01 05:01:05;;;;;;;10.10;4.57;;;14.50;99.90;;;;;;5048849;28;20372;-85
2023/01/01 05:03:31;;;;;;;12.68;4.80;;;14.50;99.90;;;;;;5048876;28;20423;-86
2023/01/01 05:06:09;;;;;;;18.70;4.88;;;14.50;99.90;;;;;;5030715;28;20412;-84
2023/01/01 05:08:37;;;;;;;7.45;4.22;;;14.40;99.90;;;;;;5054713;28;20425;-85
2023/01/01 05:11:24;;;;;;;10.23;4.47;;;14.40;99.90;;;;;;5030405;28;20391;-84
2023/01/01 05:13:52;;;;;;;10.43;4.80;;;14.40;99.90;;;;;;5031069;28;20387;-83
2023/01/01 05:16:20;;;;;;;9.30;4.90;;;14.30;99.90;;;;;;5049230;28;20407;-84
2023/01/01 05:18:47;;;;;;;8.93;4.10;;;14.20;99.90;;;;;;5049152;28;20371;-85
2023/01/01 05:21:21;;;;;;;7.85;4.43;;;14.00;99.90;;;;;;5048524;28;20380;-85
2023/01/01 05:23:47;;;;;;;7.55;4.47;;;14.30;99.90;;;;;;5048322;28;20390;-84
2023/01/01 05:26:22;;;;;;;7.03;4.05;;;14.30;99.90;;;;;;5048451;28;20454;-85
2023/01/01 05:28:50;;;;;;;10.70;4.82;;;14.30;99.90;;;;;;5030611;28;20943;-85
2023/01/01 05:31:19;;;;;;;8.57;4.07;;;14.30;99.90;;;;;;5047550;28;20870;-85
2023/01/01 05:33:45;;;;;;;7.07;4.10;;;14.40;99.90;;;;;;5048531;28;20392;-84
2023/01/01 05:36:15;;;;;;;10.50;4.47;;;14.30;99.90;;;;;;5047354;28;20383;-84
2023/01/01 05:38:42;;;;;;;9.52;4.72;;;14.30;99.90;;;;;;5030153;28;20403;-85
2023/01/01 05:41:10;;;;;;;7.72;4.30;;;14.30;99.90;;;;;;5048279;28;20447;-85
2023/01/01 05:43:36;;;;;;;10.98;4.82;;;14.30;99.90;;;;;;5048666;28;20410;-86
2023/01/01 05:46:17;;;;;;;7.90;4.53;;;14.30;99.90;;;;;;5048761;28;20549;-84
2023/01/01 05:48:42;;;;;;;9.65;4.70;;;14.30;99.90;;;;;;5048406;28;20869;-85
2023/01/01 05:51:19;;;;;;;9.63;4.30;;;14.30;99.90;;;;;;5047551;28;20406;-85
2023/01/01 05:53:45;;;;;;;9.05;4.05;;;14.30;99.90;;;;;;5047789;28;20379;-84
2023/01/01 05:56:12;;;;;;;8.57;4.70;;;14.20;99.90;;;;;;5048269;28;20371;-84
2023/01/01 05:58:38;;;;;;;12.52;4.70;;;14.20;99.90;;;;;;5048117;28;20376;-85
2023/01/01 06:01:25;;;;;;;9.57;4.53;;;14.20;99.90;;;;;;5029696;28;20715;-85
2023/01/01 06:03:52;;;;;;;12.02;5.20;;;14.10;99.90;;;;;;5048217;28;20712;-85
2023/01/01 06:06:20;;;;;;;7.93;4.35;;;14.20;99.90;;;;;;5047947;28;20407;-85
2023/01/01 06:08:51;;;;;;;14.38;4.75;;;14.10;99.90;;;;;;5048019;28;20379;-84
2023/01/01 06:11:17;;;;;;;10.18;4.57;;;14.10;99.90;;;;;;5029945;28;20411;-85
2023/01/01 06:13:43;;;;;;;10.20;4.40;;;14.20;99.90;;;;;;5030466;28;20529;-85
2023/01/01 06:16:09;;;;;;;14.03;4.93;;;14.30;99.90;;;;;;5048519;28;20401;-85
2023/01/01 06:18:35;;;;;;;8.23;4.07;;;14.30;99.90;;;;;;5047819;28;20368;-84
2023/01/01 06:21:13;;;;;;;8.43;4.35;;;14.30;99.90;;;;;;5047640;28;20410;-84
2023/01/01 06:23:39;;;;;;;7.95;4.18;;;14.30;99.90;;;;;;5047904;28;20935;-85
2023/01/01 06:26:11;;;;;;;9.80;4.30;;;14.30;99.90;;;;;;5048436;28;21104;-84
2023/01/01 06:28:38;;;;;;;8.93;4.60;;;14.30;99.90;;;;;;5047887;28;20372;-83
2023/01/01 06:31:05;;;;;;;10.98;4.20;;;14.30;99.90;;;;;;5047387;28;20382;-85
2023/01/01 06:33:32;;;;;;;8.57;4.20;;;14.30;99.90;;;;;;5048292;28;20431;-85
2023/01/01 06:35:58;;;;;;;6.80;3.80;;;14.30;99.90;;;;;;5029989;28;20467;-84
2023/01/01 06:38:23;;;;;;;6.75;4.22;;;14.30;99.90;;;;;;5047588;28;20534;-85
2023/01/01 06:41:05;;;;;;;9.10;4.17;;;14.30;99.90;;;;;;5047710;28;20466;-83
2023/01/01 06:43:33;;;;;;;8.13;4.38;;;14.40;99.90;;;;;;5048200;28;20379;-85
2023/01/01 06:46:07;;;;;;;9.70;4.70;;;14.40;99.90;;;;;;5048053;28;20454;-85
2023/01/01 06:48:35;;;;;;;7.73;4.40;;;14.50;99.90;;;;;;5048105;28;20396;-86
2023/01/01 06:51:09;;;;;;;7.33;4.30;;;14.50;99.90;;;;;;5046142;28;20444;-86
2023/01/01 06:53:35;;;;;;;9.02;4.20;;;14.50;99.90;;;;;;5049861;28;20843;-86
2023/01/01 06:56:01;;;;;;;9.80;4.55;;;14.40;99.90;;;;;;5052073;28;20459;-84
2023/01/01 06:58:27;;;;;;;7.73;4.27;;;14.40;99.90;;;;;;5051692;28;20870;-85
2023/01/01 07:00:53;;;;;;;8.50;4.18;;;14.40;99.90;;;;;;5051907;28;20371;-86
2023/01/01 07:03:18;;;;;;;10.77;4.72;;;14.40;99.90;;;;;;5052101;28;20381;-84
2023/01/01 07:05:44;;;;;;;8.07;4.20;;;14.40;99.90;;;;;;5051931;28;20434;-84
2023/01/01 07:08:10;;;;;;;10.05;4.82;;;14.60;99.90;;;;;;5033146;28;20400;-84
2023/01/01 07:10:35;;;;;;;8.07;4.53;;;14.70;99.90;;;;;;5050274;28;20955;-85
2023/01/01 07:13:01;;;;;;;8.02;4.55;;;14.80;99.90;;;;;;5051552;28;20379;-84
2023/01/01 07:15:27;;;;;;;8.47;4.43;;;14.80;99.90;;;;;;5051649;28;20738;-87
2023/01/01 07:17:52;;;;;;;9.60;4.32;;;14.90;99.90;;;;;;5050486;28;20380;-85
2023/01/01 07:20:18;;;;;;;8.70;4.47;;;14.90;99.90;;;;;;5051283;28;20434;-86
2023/01/01 07:22:44;;;;;;;10.43;4.63;;;14.80;99.90;;;;;;5050436;28;20375;-82
2023/01/01 07:25:14;;;;;;;8.60;4.77;;;14.90;99.90;;;;;;5051446;28;20407;-84
2023/01/01 07:27:39;;;;;;;8.53;4.43;;;14.90;99.90;;;;;;5051018;28;20530;-85
2023/01/01 07:30:06;;;;;;;8.45;4.85;;;14.90;99.90;;;;;;5054943;28;20471;-83
2023/01/01 07:32:31;;;;;;;7.93;4.80;;;14.90;99.90;;;;;;5050741;28;20396;-86
2023/01/01 07:34:57;;;;;;;9.02;4.78;;;14.90;99.90;;;;;;5050961;28;20537;-86
2023/01/01 07:37:25;;;;;;;8.63;4.83;;;14.90;99.90;;;;;;5050185;28;20380;-84
2023/01/01 07:39:50;;;;;;;10.88;4.55;;;14.80;99.90;;;;;;5033082;28;20391;-84
2023/01/01 07:42:16;;;;;;;8.43;4.37;;;14.80;99.90;;;;;;5050832;28;20395;-84
2023/01/01 07:44:42;;;;;;;6.10;4.53;;;14.80;99.90;;;;;;5050416;28;20384;-83
2023/01/01 07:47:28;;;;;;;6.97;4.55;;;14.80;99.90;;;;;;5049975;28;20473;-84
2023/01/01 07:49:53;;;;;;;8.95;4.97;;;14.80;99.90;;;;;;5050805;28;20430;-86
2023/01/01 07:52:19;;;;;;;9.07;5.20;;;14.80;99.90;;;;;;5050161;28;20400;-84
2023/01/01 07:54:45;;;;;;;9.27;4.70;;;14.80;99.90;;;;;;5051387;28;20455;-85
2023/01/01 07:57:10;;;;;;;8.93;4.65;;;14.80;99.90;;;;;;5050168;28;20422;-86
2023/01/01 07:59:36;;;;;;;8.97;5.13;;;14.80;99.90;;;;;;5050362;28;20372;-87
2023/01/01 08:02:02;;;;;;;6.60;4.40;;;14.80;99.90;;;;;;5032250;28;20372;-86
2023/01/01 08:04:28;;;;;;;7.95;4.78;;;14.80;99.90;;;;;;5032336;28;20751;-85
2023/01/01 08:06:54;;;;;;;8.13;4.60;;;14.80;99.90;;;;;;5050451;28;20913;-85
2023/01/01 08:09:20;;;;;;;6.00;4.82;;;14.80;99.90;;;;;;5050595;28;20398;-84
2023/01/01 08:11:46;;;;;;;8.47;4.70;;;14.80;99.90;;;;;;5049233;28;20375;-86
2023/01/01 08:14:12;;;;;;;12.05;5.50;;;14.80;99.90;;;;;;5050002;28;20433;-85
2023/01/01 08:16:38;;;;;;;8.55;4.97;;;14.80;99.90;;;;;;5049777;28;20456;-85
2023/01/01 08:19:04;;;;;;;10.70;5.30;;;14.80;99.90;;;;;;5051050;28;20470;-85
2023/01/01 08:21:30;;;;;;;7.78;5.03;;;14.80;99.90;;;;;;5049254;28;20383;-85
2023/01/01 08:23:56;;;;;;;8.15;4.65;;;14.90;99.90;;;;;;5050330;28;20947;-84
2023/01/01 08:26:31;;;;;;;12.50;5.68;;;14.80;99.90;;;;;;5032196;28;20400;-86
2023/01/01 08:28:57;;;;;;;8.90;4.90;;;14.80;99.90;;;;;;5050258;28;20371;-84
2023/01/01 08:31:24;;;;;;;9.90;5.70;;;14.90;99.90;;;;;;5050334;28;20898;-84
2023/01/01 08:33:50;;;;;;;9.85;6.00;;;15.00;99.90;;;;;;5050620;28;20415;-84
2023/01/01 08:36:16;;;;;;;8.85;5.63;;;14.90;99.90;;;;;;5050706;28;20870;-84
2023/01/01 08:38:42;;;;;;;10.15;5.53;;;14.90;99.90;;;;;;5049633;28;20388;-85
2023/01/01 08:41:08;;;;;;;10.02;5.43;;;14.90;99.90;;;;;;5049742;28;20471;-84
2023/01/01 08:43:33;;;;;;;10.20;5.53;;;14.90;99.90;;;;;;5050015;28;20372;-83
2023/01/01 08:45:59;;;;;;;9.37;5.20;;;14.90;99.90;;;;;;5049963;28;20927;-85
2023/01/01 08:48:25;;;;;;;9.00;5.80;;;14.90;99.90;;;;;;5049971;28;20833;-85
2023/01/01 08:51:01;;;;;;;10.73;5.53;;;15.00;99.90;;;;;;5049768;28;20426;-84
2023/01/01 08:53:31;;;;;;;9.53;5.50;;;15.00;99.90;;;;;;5032108;28;20394;-85
2023/01/01 08:56:05;;;;;;;10.45;5.75;;;15.00;99.90;;;;;;5051456;28;20372;-86
2023/01/01 08:58:31;;;;;;;8.90;5.32;;;15.00;99.90;;;;;;5051023;28;20430;-84
2023/01/01 09:00:58;;;;;;;8.43;5.40;;;15.00;99.90;;;;;;5050513;28;20520;-86
2023/01/01 09:03:24;;;;;;;10.45;6.03;;;15.00;99.90;;;;;;5031686;28;20459;-85
2023/01/01 09:05:51;;;;;;;10.93;6.05;;;14.90;99.90;;;;;;5050459;28;20404;-86
2023/01/01 09:08:17;;;;;;;10.95;6.18;;;15.00;99.90;;;;;;5049929;28;20507;-85
2023/01/01 09:10:43;;;;;;;9.40;5.88;;;15.00;99.90;;;;;;5049051;28;20474;-84
2023/01/01 09:13:16;;;;;;;10.97;5.77;;;15.00;99.90;;;;;;5050410;28;20451;-84
2023/01/01 09:15:42;;;;;;;8.70;5.20;;;15.00;99.90;;;;;;5049752;28;20384;-85
2023/01/01 09:18:09;;;;;;;10.68;5.85;;;15.00;99.90;;;;;;5049450;28;20388;-84
2023/01/01 09:20:35;;;;;;;10.88;5.53;;;15.00;99.90;;;;;;5049272;28;20376;-86
2023/01/01 09:23:01;;;;;;;8.50;5.43;;;14.90;99.90;;;;;;5031680;28;20461;-85
2023/01/01 09:25:27;;;;;;;9.13;5.80;;;15.00;99.90;;;;;;5048897;28;20410;-85
2023/01/01 09:28:01;;;;;;;10.45;5.97;;;15.00;99.90;;;;;;5050244;28;20388;-87
2023/01/01 09:30:26;;;;;;;9.68;5.40;;;15.00;99.90;;;;;;5049724;28;20383;-85
2023/01/01 09:32:52;;;;;;;8.15;5.53;;;15.10;99.90;;;;;;5048068;28;20388;-84
2023/01/01 09:35:18;;;;;;;9.77;5.27;;;15.20;99.90;;;;;;5031416;28;21188;-87
2023/01/01 09:37:44;;;;;;;8.40;5.38;;;15.30;99.90;;;;;;5030932;28;20507;-87
2023/01/01 09:40:39;;;;;;;9.13;5.20;;;15.30;99.90;;;;;;5049834;28;20732;-86
2023/01/01 09:43:27;;;;;;;10.40;5.75;;;15.30;99.90;;;;;;5031895;28;20458;-84
2023/01/01 09:46:05;;;;;;;9.18;5.38;;;15.30;99.90;;;;;;5047521;28;20458;-84
2023/01/01 09:48:32;;;;;;;7.05;4.90;;;15.30;99.90;;;;;;5031778;28;20465;-85
2023/01/01 09:51:01;;;;;;;9.30;5.20;;;15.30;99.90;;;;;;5048876;28;20416;-85
2023/01/01 09:53:46;;;;;;;8.45;4.75;;;15.40;99.90;;;;;;5058596;28;20378;-84
2023/01/01 09:56:19;;;;;;;8.38;4.85;;;15.40;99.90;;;;;;5058389;28;20372;-84
2023/01/01 09:58:45;;;;;;;11.50;4.80;;;15.40;99.90;;;;;;5050563;28;20384;-86
2023/01/01 10:01:26;;;;;;;10.90;5.00;;;15.50;99.90;;;;;;5048897;28;20696;-87
2023/01/01 10:04:38;;;;;;;8.68;5.00;;;15.40;99.90;;;;;;5049613;28;21144;-84
2023/01/01 10:07:40;;;;;;;6.45;4.53;;;15.50;99.90;;;;;;5003946;28;20557;-86
2023/01/01 10:10:34;;;;;;;8.35;4.53;;;15.40;99.90;;;;;;5049663;28;20442;-84
2023/01/01 10:13:12;;;;;;;10.88;5.53;;;15.40;99.90;;;;;;5049684;28;20383;-86
2023/01/01 10:15:53;;;;;;;10.05;5.72;;;15.40;99.90;;;;;;5050055;28;20383;-85
2023/01/01 10:18:28;;;;;;;9.25;4.88;;;15.40;99.90;;;;;;5049581;28;20376;-85
2023/01/01 10:21:04;;;;;;;7.73;5.20;;;15.50;99.90;;;;;;5031640;28;20416;-85
2023/01/01 10:23:51;;;;;;;9.40;4.90;;;15.40;99.90;;;;;;5032558;28;20862;-85
2023/01/01 10:26:20;;;;;;;9.97;4.77;;;15.50;99.90;;;;;;5032712;28;20399;-86
2023/01/01 10:29:07;;;;;;;10.43;5.60;;;15.50;99.90;;;;;;5033877;28;20387;-86
2023/01/01 10:31:37;;;;;;;7.40;4.53;;;15.40;99.90;;;;;;5053023;28;20375;-85
2023/01/01 10:34:16;;;;;;;8.18;4.55;;;15.40;99.90;;;;;;5035342;28;20799;-86
2023/01/01 10:36:43;;;;;;;8.65;4.40;;;15.50;99.90;;;;;;5036498;28;20743;-86
2023/01/01 10:39:16;;;;;;;8.00;4.10;;;15.50;99.90;;;;;;5052541;28;20419;-85
2023/01/01 10:41:43;;;;;;;7.30;4.20;;;15.50;99.90;;;;;;5062673;28;20392;-86
2023/01/01 10:44:11;;;;;;;6.97;4.00;;;15.50;99.90;;;;;;5062096;28;20946;-85
2023/01/01 10:46:52;;;;;;;6.13;4.10;;;15.50;99.90;;;;;;5052473;28;20413;-86
2023/01/01 10:49:18;;;;;;;6.05;3.88;;;15.50;99.90;;;;;;5047317;28;20949;-88
2023/01/01 10:51:52;;;;;;;7.68;4.80;;;15.60;99.90;;;;;;5051982;28;20420;-88
2023/01/01 10:54:39;;;;;;;6.18;3.60;;;15.50;99.90;;;;;;5050991;28;20379;-85
2023/01/01 10:57:36;;;;;;;6.90;3.60;;;15.60;99.90;;;;;;5035040;28;20455;-86
2023/01/01 11:00:21;;;;;;;10.38;4.10;;;15.50;99.90;;;;;;5053846;28;20391;-86
2023/01/01 11:02:47;;;;;;;8.00;4.10;;;15.60;99.90;;;;;;5035204;28;20445;-86
2023/01/01 11:05:19;;;;;;;5.75;3.38;;;15.60;99.90;;;;;;5050533;28;20396;-86
2023/01/01 11:07:46;;;;;;;6.40;3.83;;;15.60;99.90;;;;;;5060573;28;20383;-86
2023/01/01 11:10:24;;;;;;;5.95;3.90;;;15.60;99.90;;;;;;5052901;28;20368;-86
2023/01/01 11:12:52;;;;;;;7.03;3.80;;;15.50;99.90;;;;;;5033595;28;20874;-85
2023/01/01 11:15:44;;;;;;;7.40;3.85;;;15.60;99.90;;;;;;5052554;28;20384;-86
2023/01/01 11:18:25;;;;;;;7.78;3.95;;;15.60;99.90;;;;;;5032120;28;20372;-87
2023/01/01 11:20:55;;;;;;;6.93;3.72;;;15.80;99.90;;;;;;5034855;28;20398;-86
2023/01/01 11:23:36;;;;;;;5.95;3.63;;;15.70;99.90;;;;;;5034021;28;20380;-87
2023/01/01 11:26:25;;;;;;;7.47;3.50;;;15.80;99.90;;;;;;5050655;28;20426;-86
2023/01/01 11:29:14;;;;;;;4.85;3.42;;;15.80;99.90;;;;;;5035940;28;20386;-89
2023/01/01 11:31:41;;;;;;;6.78;3.40;;;15.60;99.90;;;;;;5066666;28;20519;-88
2023/01/01 11:34:29;;;;;;;6.50;3.70;;;15.90;99.90;;;;;;5037056;28;20384;-87
2023/01/01 11:37:10;;;;;;;6.22;3.42;;;15.80;99.90;;;;;;5063985;28;20378;-89
2023/01/01 11:39:36;;;;;;;5.75;3.35;;;15.80;99.90;;;;;;5054342;28;20882;-87
2023/01/01 11:42:03;;;;;;;7.23;3.27;;;15.80;99.90;;;;;;5027704;28;20406;-86
2023/01/01 11:44:44;;;;;;;5.63;2.97;;;15.80;99.90;;;;;;5046260;28;20504;-86
2023/01/01 11:47:21;;;;;;;8.10;3.22;;;15.80;99.90;;;;;;5040497;28;20409;-86
2023/01/01 11:50:21;;;;;;;6.15;3.22;;;15.80;99.90;;;;;;5043893;28;20387;-88
2023/01/01 11:52:49;;;;;;;6.47;3.22;;;15.80;99.90;;;;;;5037560;28;20491;-85
2023/01/01 11:55:21;;;;;;;7.22;3.08;;;15.90;99.90;;;;;;5028082;28;20932;-86
2023/01/01 11:58:00;;;;;;;6.03;3.75;;;15.80;99.90;;;;;;5052292;28;20376;-87
2023/01/01 12:00:29;;;;;;;5.78;3.40;;;15.80;99.90;;;;;;5051521;28;20416;-86
2023/01/01 12:03:21;;;;;;;8.20;3.72;;;15.80;99.90;;;;;;5033799;28;20511;-85
2023/01/01 12:06:22;;;;;;;9.00;3.75;;;15.70;99.90;;;;;;5051895;28;20881;-87
2023/01/01 12:08:57;;;;;;;6.28;3.42;;;15.70;99.90;;;;;;5034506;28;20552;-85
2023/01/01 12:11:28;;;;;;;7.95;3.38;;;15.70;99.90;;;;;;5051567;28;20384;-86
2023/01/01 12:14:36;;;;;;;8.38;3.50;;;15.70;99.90;;;;;;5048777;28;20414;-87
2023/01/01 12:17:08;;;;;;;6.70;3.03;;;15.60;99.90;;;;;;5062519;28;20480;-86
2023/01/01 12:19:44;;;;;;;4.57;2.97;;;15.50;99.90;;;;;;5034343;28;20885;-87
2023/01/01 12:22:18;;;;;;;6.10;3.37;;;15.70;99.90;;;;;;5039992;28;20425;-88
2023/01/01 12:24:45;;;;;;;6.87;3.57;;;15.70;99.90;;;;;;5021686;28;20733;-87
2023/01/01 12:27:23;;;;;;;8.85;3.88;;;15.70;99.90;;;;;;5033985;28;20487;-85
2023/01/01 12:30:30;;;;;;;6.63;3.60;;;15.70;99.90;;;;;;5031941;28;20390;-85
2023/01/01 12:33:08;;;;;;;6.03;3.47;;;15.80;99.90;;;;;;5028561;28;20474;-87
2023/01/01 12:35:45;;;;;;;6.88;3.35;;;15.80;99.90;;;;;;5032873;28;20391;-88
2023/01/01 12:38:36;;;;;;;6.87;3.20;;;15.70;99.90;;;;;;5051032;28;20387;-88
2023/01/01 12:41:38;;;;;;;6.77;3.37;;;15.60;99.90;;;;;;5030393;28;20481;-87
2023/01/01 12:44:46;;;;;;;5.82;3.17;;;15.60;99.90;;;;;;5011351;28;20389;-87
2023/01/01 12:47:39;;;;;;;6.38;2.90;;;15.50;99.90;;;;;;5043485;28;20494;-85
2023/01/01 12:50:21;;;;;;;5.93;3.08;;;15.60;99.90;;;;;;5048468;28;20392;-86
2023/01/01 12:53:41;;;;;;;5.97;3.17;;;15.60;99.90;;;;;;5050172;28;20406;-86
2023/01/01 12:56:19;;;;;;;7.80;2.80;;;15.50;99.90;;;;;;4972194;28;20416;-85
2023/01/01 12:58:54;;;;;;;7.80;3.17;;;15.50;99.90;;;;;;5040049;28;20398;-86
2023/01/01 13:01:21;;;;;;;6.90;3.20;;;15.40;99.90;;;;;;5028904;28;20470;-86
2023/01/01 13:03:59;;;;;;;6.33;3.07;;;15.50;99.90;;;;;;5031239;28;20387;-84
2023/01/01 13:06:33;;;;;;;7.00;2.90;;;15.40;99.90;;;;;;5048881;28;20427;-87
2023/01/01 13:09:05;;;;;;;6.53;3.40;;;15.40;99.90;;;;;;5050130;28;20376;-87
2023/01/01 13:11:32;;;;;;;7.40;3.50;;;15.40;99.90;;;;;;5049202;28;20404;-86
2023/01/01 13:13:58;;;;;;;4.97;3.00;;;15.30;99.90;;;;;;5049095;28;20383;-83